createdAt,value
2023-01-09T00:00:35.691Z,94612.66
2023-01-09T00:03:02.525Z,94608.81
2023-01-09T00:05:29.044Z,94599.69
2023-01-09T00:07:55.829Z,94599.25
2023-01-09T00:10:22.452Z,94590.13
2023-01-09T00:12:48.998Z,94587.91
2023-01-09T00:15:15.864Z,94573.72
2023-01-09T00:17:42.353Z,94570.84
2023-01-09T00:20:09.958Z,94563.16
2023-01-09T00:22:38.235Z,94562.72
2023-01-09T00:25:05.412Z,94557.00
2023-01-09T00:27:36.213Z,94538.34
2023-01-09T00:30:03.781Z,94545.66
2023-01-09T00:32:30.303Z,94545.25
2023-01-09T00:34:57.373Z,94538.28
2023-01-09T00:37:23.831Z,94536.31
2023-01-09T00:39:50.914Z,94532.09
2023-01-09T00:42:25.724Z,94531.69
2023-01-09T00:44:59.207Z,94532.09
2023-01-09T00:47:31.170Z,94535.88
2023-01-09T00:50:06.835Z,94517.47
2023-01-09T00:52:37.600Z,94524.50
2023-01-09T00:55:05.230Z,94519.22
2023-01-09T00:57:32.025Z,94523.06
2023-01-09T00:59:59.649Z,94515.09
2023-01-09T01:02:26.174Z,94516.50
2023-01-09T01:05:11.557Z,94508.00
2023-01-09T01:07:41.448Z,94503.59
2023-01-09T01:10:12.297Z,94498.44
2023-01-09T01:12:39.678Z,94496.97
2023-01-09T01:15:07.509Z,94501.06
2023-01-09T01:17:36.707Z,94505.72
2023-01-09T01:20:05.732Z,94490.59
2023-01-09T01:22:32.958Z,94483.38
2023-01-09T01:24:59.887Z,94478.47
2023-01-09T01:27:27.693Z,94464.72
2023-01-09T01:29:54.154Z,94474.25
2023-01-09T01:32:20.905Z,94466.34
2023-01-09T01:34:47.972Z,94470.44
2023-01-09T01:37:14.747Z,94476.72
2023-01-09T01:39:41.325Z,94462.03
2023-01-09T01:42:08.611Z,94470.00
2023-01-09T01:45:10.974Z,94485.75
2023-01-09T01:48:11.909Z,94472.91
2023-01-09T01:50:40.890Z,94472.69
2023-01-09T01:53:21.692Z,94466.78
2023-01-09T01:56:00.916Z,94469.56
2023-01-09T01:58:28.415Z,94469.56
2023-01-09T02:00:55.285Z,94466.28
2023-01-09T02:03:26.790Z,94467.09
2023-01-09T02:05:53.259Z,94458.75
2023-01-09T02:08:21.113Z,94461.94
2023-01-09T02:10:47.687Z,94464.16
2023-01-09T02:13:14.586Z,94460.50
2023-01-09T02:16:00.196Z,94461.69
2023-01-09T02:18:30.677Z,94450.00
2023-01-09T02:21:22.733Z,94454.00
2023-01-09T02:24:10.731Z,94451.59
2023-01-09T02:27:02.069Z,94453.63
2023-01-09T02:30:02.547Z,94455.69
2023-01-09T02:32:42.870Z,94458.91
2023-01-09T02:35:34.324Z,94460.28
2023-01-09T02:38:03.899Z,94448.22
2023-01-09T02:40:50.617Z,94456.84
2023-01-09T02:43:18.129Z,94458.69
2023-01-09T02:45:44.663Z,94457.88
2023-01-09T02:48:11.523Z,94455.00
2023-01-09T02:51:15.161Z,94461.91
2023-01-09T02:53:50.585Z,94467.94
2023-01-09T02:56:44.039Z,94458.81
2023-01-09T02:59:26.800Z,94463.41
2023-01-09T03:02:15.743Z,94462.97
2023-01-09T03:05:07.039Z,94448.66
2023-01-09T03:07:42.435Z,94456.97
2023-01-09T03:10:18.990Z,94458.59
2023-01-09T03:12:48.891Z,94459.63
2023-01-09T03:15:18.157Z,94462.00
2023-01-09T03:17:49.105Z,94460.03
2023-01-09T03:20:21.090Z,94464.88
2023-01-09T03:23:00.872Z,94471.19
2023-01-09T03:25:29.496Z,94476.06
2023-01-09T03:28:00.831Z,94474.81
2023-01-09T03:30:29.057Z,94479.94
2023-01-09T03:32:57.171Z,94488.41
2023-01-09T03:35:24.208Z,94483.16
2023-01-09T03:37:51.720Z,94491.63
2023-01-09T03:40:19.685Z,94496.09
2023-01-09T03:42:46.574Z,94502.94
2023-01-09T03:45:13.580Z,94509.25
2023-01-09T03:47:40.030Z,94508.94
2023-01-09T03:50:07.155Z,94510.34
2023-01-09T03:52:35.926Z,94527.75
2023-01-09T03:55:02.618Z,94527.66
2023-01-09T03:57:29.061Z,94524.72
2023-01-09T03:59:55.486Z,94534.09
2023-01-09T04:02:22.268Z,94548.25
2023-01-09T04:04:48.738Z,94549.88
2023-01-09T04:07:15.210Z,94550.31
2023-01-09T04:09:42.038Z,94556.69
2023-01-09T04:12:08.485Z,94561.06
2023-01-09T04:14:34.948Z,94578.19
2023-01-09T04:17:01.784Z,94584.47
2023-01-09T04:19:28.229Z,94580.72
2023-01-09T04:21:54.633Z,94569.84
2023-01-09T04:24:21.472Z,94574.53
2023-01-09T04:26:47.916Z,94581.25
2023-01-09T04:29:14.367Z,94594.63
2023-01-09T04:31:41.054Z,94587.75
2023-01-09T04:34:07.955Z,94609.19
2023-01-09T04:36:36.027Z,94609.63
2023-01-09T04:39:03.655Z,94616.13
2023-01-09T04:41:48.695Z,94615.78
2023-01-09T04:44:19.964Z,94620.31
2023-01-09T04:46:46.495Z,94624.59
2023-01-09T04:49:13.275Z,94629.13
2023-01-09T04:51:40.237Z,94632.41
2023-01-09T04:54:07.086Z,94622.91
2023-01-09T04:56:34.195Z,94625.38
2023-01-09T04:59:00.669Z,94621.16
2023-01-09T05:01:29.264Z,94609.47
2023-01-09T05:03:56.362Z,94631.41
2023-01-09T05:06:22.915Z,94637.41
2023-01-09T05:08:49.484Z,94640.63
2023-01-09T05:11:16.542Z,94643.84
2023-01-09T05:13:43.106Z,94641.03
2023-01-09T05:16:12.944Z,94649.53
2023-01-09T05:18:39.957Z,94654.16
2023-01-09T05:21:06.630Z,94669.56
2023-01-09T05:23:33.052Z,94668.69
2023-01-09T05:26:00.102Z,94680.63
2023-01-09T05:28:26.924Z,94693.59
2023-01-09T05:30:53.451Z,94712.84
2023-01-09T05:33:19.934Z,94713.66
2023-01-09T05:35:46.620Z,94721.19
2023-01-09T05:38:13.415Z,94723.78
2023-01-09T05:40:40.648Z,94752.66
2023-01-09T05:43:07.423Z,94757.50
2023-01-09T05:45:34.498Z,94764.38
2023-01-09T05:48:01.055Z,94755.47
2023-01-09T05:50:27.920Z,94769.28
2023-01-09T05:52:54.692Z,94766.13
2023-01-09T05:55:21.501Z,94771.28
2023-01-09T05:57:48.031Z,94772.31
2023-01-09T06:00:15.285Z,94783.25
2023-01-09T06:02:42.372Z,94791.38
2023-01-09T06:05:09.452Z,94791.63
2023-01-09T06:07:39.245Z,94800.75
2023-01-09T06:10:07.343Z,94787.09
2023-01-09T06:12:34.175Z,94798.72
2023-01-09T06:15:00.932Z,94799.75
2023-01-09T06:17:27.372Z,94807.81
2023-01-09T06:19:53.877Z,94804.22
2023-01-09T06:22:20.661Z,94815.22
2023-01-09T06:24:47.134Z,94814.81
2023-01-09T06:27:14.050Z,94821.69
2023-01-09T06:29:40.696Z,94822.31
2023-01-09T06:32:07.217Z,94815.22
2023-01-09T06:34:34.155Z,94821.31
2023-01-09T06:37:00.587Z,94825.00
2023-01-09T06:39:27.022Z,94827.78
2023-01-09T06:41:53.779Z,94836.69
2023-01-09T06:44:20.208Z,94845.56
2023-01-09T06:46:46.611Z,94845.16
2023-01-09T06:49:13.400Z,94839.69
2023-01-09T06:51:39.875Z,94836.06
2023-01-09T06:54:06.348Z,94836.50
2023-01-09T06:56:33.187Z,94851.66
2023-01-09T06:59:01.151Z,94844.41
2023-01-09T07:01:27.710Z,94853.72
2023-01-09T07:03:54.688Z,94855.75
2023-01-09T07:06:21.498Z,94866.25
2023-01-09T07:08:48.071Z,94868.88
2023-01-09T07:11:14.638Z,94880.81
2023-01-09T07:13:41.131Z,94881.19
2023-01-09T07:16:08.209Z,94878.97
2023-01-09T07:18:34.811Z,94871.53
2023-01-09T07:21:01.599Z,94869.88
2023-01-09T07:23:28.034Z,94880.38
2023-01-09T07:25:54.526Z,94886.25
2023-01-09T07:28:21.395Z,94873.34
2023-01-09T07:30:47.799Z,94888.06
2023-01-09T07:33:14.224Z,94893.91
2023-01-09T07:35:41.041Z,94892.91
2023-01-09T07:38:07.476Z,94915.13
2023-01-09T07:40:34.531Z,94907.84
2023-01-09T07:43:01.321Z,94902.19
2023-01-09T07:45:27.748Z,94902.59
2023-01-09T07:47:54.173Z,94896.53
2023-01-09T07:50:21.232Z,94892.09
2023-01-09T07:52:48.254Z,94892.09
2023-01-09T07:55:16.716Z,94901.75
2023-01-09T07:57:47.844Z,94895.84
2023-01-09T08:00:14.930Z,94891.03
2023-01-09T08:02:41.452Z,94897.69
2023-01-09T08:05:09.547Z,94902.13
2023-01-09T08:07:36.084Z,94902.56
2023-01-09T08:10:02.552Z,94913.06
2023-01-09T08:12:29.485Z,94909.19
2023-01-09T08:14:55.889Z,94920.13
2023-01-09T08:17:22.304Z,94919.94
2023-01-09T08:19:49.087Z,94933.06
2023-01-09T08:22:15.552Z,94934.09
2023-01-09T08:24:41.999Z,94928.25
2023-01-09T08:27:08.831Z,94939.97
2023-01-09T08:29:35.656Z,94942.41
2023-01-09T08:32:02.437Z,94947.66
2023-01-09T08:34:28.972Z,94942.59
2023-01-09T08:36:55.396Z,94936.94
2023-01-09T08:39:22.175Z,94939.34
2023-01-09T08:42:07.185Z,94932.50
2023-01-09T08:44:52.401Z,94944.44
2023-01-09T08:47:21.533Z,94946.44
2023-01-09T08:49:47.983Z,94950.28
2023-01-09T08:52:14.842Z,94953.13
2023-01-09T08:54:41.368Z,94946.25
2023-01-09T08:57:08.505Z,94942.19
2023-01-09T08:59:35.129Z,94940.19
2023-01-09T09:02:01.525Z,94939.38
2023-01-09T09:04:28.316Z,94935.31
2023-01-09T09:06:54.790Z,94929.25
2023-01-09T09:09:21.227Z,94937.34
2023-01-09T09:11:48.112Z,94929.47
2023-01-09T09:14:33.118Z,94936.94
2023-01-09T09:16:59.977Z,94937.16
2023-01-09T09:19:26.386Z,94938.94
2023-01-09T09:21:52.796Z,94934.28
2023-01-09T09:24:19.599Z,94952.06
2023-01-09T09:26:46.076Z,94931.66
2023-01-09T09:29:12.554Z,94947.66
2023-01-09T09:31:39.676Z,94947.44
2023-01-09T09:34:07.630Z,94928.06
2023-01-09T09:36:34.062Z,94932.09
2023-01-09T09:39:02.505Z,94936.31
2023-01-09T09:42:05.154Z,94924.78
2023-01-09T09:44:54.337Z,94929.03
2023-01-09T09:47:43.235Z,94928.88
2023-01-09T09:50:22.210Z,94938.75
2023-01-09T09:52:57.363Z,94940.16
2023-01-09T09:55:29.622Z,94942.00
2023-01-09T09:57:58.421Z,94943.00
2023-01-09T10:00:25.667Z,94937.34
2023-01-09T10:02:54.697Z,94944.03
2023-01-09T10:05:27.459Z,94928.03
2023-01-09T10:07:54.038Z,94932.06
2023-01-09T10:10:37.119Z,94929.22
2023-01-09T10:13:22.663Z,94931.22
2023-01-09T10:16:08.853Z,94928.81
2023-01-09T10:18:35.295Z,94935.69
2023-01-09T10:21:38.763Z,94948.56
2023-01-09T10:24:24.605Z,94936.66
2023-01-09T10:26:52.396Z,94942.94
2023-01-09T10:29:37.760Z,94949.63
2023-01-09T10:32:42.547Z,94942.16
2023-01-09T10:35:39.264Z,94952.25
2023-01-09T10:38:14.013Z,94951.03
2023-01-09T10:40:47.184Z,94940.69
2023-01-09T10:43:34.936Z,94946.75
2023-01-09T10:46:20.858Z,94936.63
2023-01-09T10:48:53.262Z,94943.91
2023-01-09T10:51:35.968Z,94948.69
2023-01-09T10:54:05.024Z,94944.06
2023-01-09T10:56:39.735Z,94933.94
2023-01-09T10:59:09.812Z,94934.75
2023-01-09T11:01:39.867Z,94953.53
2023-01-09T11:04:31.397Z,94954.38
2023-01-09T11:07:20.619Z,94956.16
2023-01-09T11:10:08.003Z,94952.88
2023-01-09T11:12:36.217Z,94942.56
2023-01-09T11:15:21.146Z,94956.94
2023-01-09T11:17:48.280Z,94940.22
2023-01-09T11:20:28.476Z,94953.63
2023-01-09T11:22:56.973Z,94955.66
2023-01-09T11:25:29.249Z,94963.19
2023-01-09T11:28:02.370Z,94952.84
2023-01-09T11:30:31.175Z,94938.97
2023-01-09T11:32:59.040Z,94949.56
2023-01-09T11:35:34.340Z,94949.53
2023-01-09T11:38:15.754Z,94949.97
2023-01-09T11:41:03.942Z,94956.53
2023-01-09T11:43:38.209Z,94958.09
2023-01-09T11:46:11.618Z,94956.09
2023-01-09T11:48:41.749Z,94946.34
2023-01-09T11:51:21.602Z,94950.41
2023-01-09T11:53:59.113Z,94944.31
2023-01-09T11:56:26.083Z,94929.38
2023-01-09T11:58:53.312Z,94921.63
2023-01-09T12:01:38.513Z,94924.81
2023-01-09T12:04:21.299Z,94930.66
2023-01-09T12:10:31.201Z,94928.81
2023-01-09T12:13:18.371Z,94935.78
2023-01-09T12:15:47.767Z,94929.28
2023-01-09T12:18:28.470Z,94927.69
2023-01-09T12:21:21.667Z,94923.63
2023-01-09T12:24:39.966Z,94923.88
2023-01-09T12:27:32.113Z,94924.56
2023-01-09T12:30:17.181Z,94924.91
2023-01-09T12:33:13.167Z,94927.41
2023-01-09T12:35:50.844Z,94911.66
2023-01-09T12:38:48.210Z,94915.81
2023-01-09T12:41:37.007Z,94925.16
2023-01-09T12:44:35.033Z,94932.28
2023-01-09T12:47:18.012Z,94930.03
2023-01-09T12:50:07.612Z,94933.66
2023-01-09T12:52:46.534Z,94939.19
2023-01-09T12:55:25.195Z,94930.06
2023-01-09T12:57:56.416Z,94936.91
2023-01-09T13:00:35.576Z,94940.53
2023-01-09T13:03:20.736Z,94931.59
2023-01-09T13:05:50.157Z,94937.69
2023-01-09T13:08:35.508Z,94924.91
2023-01-09T13:11:27.907Z,94923.88
2023-01-09T13:14:10.247Z,94921.44
2023-01-09T13:16:44.515Z,94930.34
2023-01-09T13:19:24.440Z,94930.03
2023-01-09T13:21:52.352Z,94932.88
2023-01-09T13:24:30.669Z,94927.66
2023-01-09T13:27:01.458Z,94930.91
2023-01-09T13:29:35.827Z,94936.19
2023-01-09T13:32:34.973Z,94909.28
2023-01-09T13:35:02.135Z,94916.34
2023-01-09T13:37:31.811Z,94926.81
2023-01-09T13:40:26.432Z,94924.53
2023-01-09T13:43:03.210Z,94918.63
2023-01-09T13:45:35.389Z,94914.94
2023-01-09T13:48:11.166Z,94915.34
2023-01-09T13:50:38.972Z,94919.63
2023-01-09T13:53:17.614Z,94910.13
2023-01-09T13:55:59.891Z,94925.16
2023-01-09T13:58:28.252Z,94932.88
2023-01-09T14:00:58.747Z,94935.97
2023-01-09T14:03:36.066Z,94937.97
2023-01-09T14:06:06.058Z,94957.06
2023-01-09T14:08:33.730Z,94958.66
2023-01-09T14:11:03.051Z,94956.31
2023-01-09T14:13:45.958Z,94955.91
2023-01-09T14:16:23.588Z,94959.53
2023-01-09T14:19:05.503Z,94958.66
2023-01-09T14:21:52.435Z,94958.41
2023-01-09T14:24:24.065Z,94954.94
2023-01-09T14:26:57.775Z,94949.44
2023-01-09T14:29:41.349Z,94962.19
2023-01-09T14:32:23.202Z,94966.31
2023-01-09T14:34:57.512Z,94982.56
2023-01-09T14:37:26.282Z,94978.53
2023-01-09T14:39:53.085Z,94972.28
2023-01-09T14:42:24.877Z,94978.34
2023-01-09T14:44:58.896Z,94978.75
2023-01-09T14:47:31.381Z,94982.56
2023-01-09T14:50:06.684Z,94990.69
2023-01-09T14:52:40.427Z,95002.00
2023-01-09T14:55:30.105Z,95000.22
2023-01-09T14:58:10.798Z,95005.47
2023-01-09T15:00:37.324Z,95006.06
2023-01-09T15:03:04.071Z,95003.25
2023-01-09T15:05:31.939Z,95014.97
2023-01-09T15:08:03.952Z,95024.25
2023-01-09T15:10:33.955Z,95025.84
2023-01-09T15:13:03.196Z,95028.91
2023-01-09T15:15:30.073Z,95029.13
2023-01-09T15:18:07.287Z,95035.59
2023-01-09T15:20:34.830Z,95032.13
2023-01-09T15:23:04.276Z,95036.97
2023-01-09T15:25:39.695Z,95036.56
2023-01-09T15:28:40.089Z,95043.84
2023-01-09T15:31:12.842Z,95049.50
2023-01-09T15:33:42.975Z,95066.91
2023-01-09T15:36:19.693Z,95074.38
2023-01-09T15:38:48.239Z,95084.31
2023-01-09T15:41:43.016Z,95086.72
2023-01-09T15:44:19.937Z,95096.41
2023-01-09T15:46:49.986Z,95096.19
2023-01-09T15:49:18.945Z,95112.75
2023-01-09T15:51:47.336Z,95110.31
2023-01-09T15:54:18.903Z,95117.38
2023-01-09T15:56:46.793Z,95112.28
2023-01-09T15:59:28.108Z,95117.16
2023-01-09T16:02:18.774Z,95124.03
2023-01-09T16:04:46.566Z,95123.13
2023-01-09T16:07:20.308Z,95123.38
2023-01-09T16:09:49.025Z,95120.69
2023-01-09T16:12:21.639Z,95123.72
2023-01-09T16:14:55.571Z,95126.75
2023-01-09T16:17:31.204Z,95129.97
2023-01-09T16:20:12.186Z,95141.81
2023-01-09T16:22:55.178Z,95139.94
2023-01-09T16:25:31.823Z,95143.72
2023-01-09T16:30:56.429Z,95145.44
2023-01-09T16:33:25.440Z,95154.88
2023-01-09T16:35:52.859Z,95147.72
2023-01-09T16:38:20.679Z,95159.53
2023-01-09T16:41:22.035Z,95157.75
2023-01-09T16:43:49.754Z,95163.59
2023-01-09T16:46:18.577Z,95168.16
2023-01-09T16:48:45.268Z,95162.16
2023-01-09T16:51:20.768Z,95162.16
2023-01-09T16:53:48.768Z,95168.25
2023-01-09T16:56:19.956Z,95170.31
2023-01-09T16:58:46.386Z,95178.81
2023-01-09T17:01:15.152Z,95174.41
2023-01-09T17:03:44.010Z,95168.56
2023-01-09T17:06:24.967Z,95170.16
2023-01-09T17:08:51.934Z,95170.00
2023-01-09T17:11:32.103Z,95187.25
2023-01-09T17:14:02.390Z,95184.84
2023-01-09T17:16:29.797Z,95187.25
2023-01-09T17:18:56.917Z,95185.66
2023-01-09T17:21:26.840Z,95185.66
2023-01-09T17:24:13.623Z,95189.31
2023-01-09T17:27:01.465Z,95192.00
2023-01-09T17:29:30.366Z,95184.94
2023-01-09T17:31:57.707Z,95195.38
2023-01-09T17:34:24.233Z,95200.00
2023-01-09T17:36:51.161Z,95200.00
2023-01-09T17:39:17.928Z,95206.44
2023-01-09T17:41:44.935Z,95208.47
2023-01-09T17:44:12.218Z,95220.31
2023-01-09T17:46:41.079Z,95217.28
2023-01-09T17:49:14.172Z,95223.53
2023-01-09T17:51:40.945Z,95225.06
2023-01-09T17:54:07.755Z,95227.50
2023-01-09T17:56:37.330Z,95240.50
2023-01-09T17:59:04.837Z,95234.59
2023-01-09T18:01:32.028Z,95238.66
2023-01-09T18:03:58.507Z,95234.41
2023-01-09T18:06:24.955Z,95237.38
2023-01-09T18:08:51.968Z,95236.13
2023-01-09T18:11:21.643Z,95254.44
2023-01-09T18:13:49.875Z,95261.31
2023-01-09T18:16:18.916Z,95269.06
2023-01-09T18:18:46.855Z,95269.06
2023-01-09T18:21:17.618Z,95273.28
2023-01-09T18:23:44.917Z,95275.09
2023-01-09T18:26:18.505Z,95275.53
2023-01-09T18:28:44.940Z,95279.09
2023-01-09T18:31:11.614Z,95283.47
2023-01-09T18:33:38.468Z,95278.44
2023-01-09T18:36:07.557Z,95279.06
2023-01-09T18:38:34.410Z,95289.03
2023-01-09T18:41:02.310Z,95297.38
2023-01-09T18:43:29.191Z,95297.31
2023-01-09T18:45:56.669Z,95302.00
2023-01-09T18:48:23.512Z,95306.00
2023-01-09T18:50:50.282Z,95312.53
2023-01-09T18:53:16.755Z,95315.69
2023-01-09T18:55:43.176Z,95312.97
2023-01-09T18:58:09.632Z,95324.19
2023-01-09T19:00:36.857Z,95323.81
2023-01-09T19:03:03.274Z,95332.75
2023-01-09T19:05:32.449Z,95329.13
2023-01-09T19:07:58.941Z,95332.44
2023-01-09T19:10:25.381Z,95334.69
2023-01-09T19:12:52.388Z,95350.63
2023-01-09T19:15:18.958Z,95350.69
2023-01-09T19:17:47.157Z,95338.22
2023-01-09T19:20:13.683Z,95350.31
2023-01-09T19:22:40.428Z,95352.13
2023-01-09T19:25:07.544Z,95364.50
2023-01-09T19:27:33.981Z,95366.50
2023-01-09T19:30:00.504Z,95361.38
2023-01-09T19:32:27.183Z,95367.34
2023-01-09T19:34:53.619Z,95375.38
2023-01-09T19:37:20.101Z,95378.81
2023-01-09T19:39:47.523Z,95379.25
2023-01-09T19:42:16.200Z,95375.28
2023-01-09T19:44:42.639Z,95375.72
2023-01-09T19:47:09.612Z,95380.78
2023-01-09T19:49:36.104Z,95389.09
2023-01-09T19:52:02.897Z,95396.22
2023-01-09T19:54:30.621Z,95400.75
2023-01-09T19:56:57.377Z,95398.03
2023-01-09T19:59:23.905Z,95405.97
2023-01-09T20:01:53.092Z,95402.78
2023-01-09T20:04:20.157Z,95413.13
2023-01-09T20:06:48.762Z,95424.38
2023-01-09T20:09:22.852Z,95426.19
2023-01-09T20:11:49.304Z,95425.44
2023-01-09T20:14:17.361Z,95431.69
2023-01-09T20:16:45.232Z,95439.19
2023-01-09T20:19:13.049Z,95439.91
2023-01-09T20:21:40.041Z,95446.59
2023-01-09T20:24:08.326Z,95451.75
2023-01-09T20:26:37.125Z,95453.66
2023-01-09T20:29:03.955Z,95455.66
2023-01-09T20:31:34.163Z,95453.59
2023-01-09T20:34:04.503Z,95446.53
2023-01-09T20:36:31.754Z,95454.41
2023-01-09T20:39:01.117Z,95449.50
2023-01-09T20:41:31.854Z,95455.56
2023-01-09T20:44:05.384Z,95457.38
2023-01-09T20:46:36.788Z,95465.25
2023-01-09T20:49:06.835Z,95467.25
2023-01-09T20:51:41.097Z,95463.63
2023-01-09T20:54:08.156Z,95471.66
2023-01-09T20:56:36.563Z,95469.88
2023-01-09T20:59:03.172Z,95486.97
2023-01-09T21:01:30.086Z,95484.16
2023-01-09T21:03:56.907Z,95492.13
2023-01-09T21:06:25.272Z,95504.69
2023-01-09T21:08:52.988Z,95499.44
2023-01-09T21:11:21.430Z,95497.47
2023-01-09T21:13:48.614Z,95503.88
2023-01-09T21:16:19.857Z,95505.31
2023-01-09T21:18:47.458Z,95504.22
2023-01-09T21:21:16.497Z,95499.19
2023-01-09T21:23:52.251Z,95504.97
2023-01-09T21:26:22.661Z,95519.78
2023-01-09T21:28:55.191Z,95523.47
2023-01-09T21:31:35.412Z,95524.59
2023-01-09T21:34:06.013Z,95520.53
2023-01-09T21:36:33.191Z,95536.06
2023-01-09T21:38:59.725Z,95539.31
2023-01-09T21:41:45.285Z,95542.41
2023-01-09T21:44:31.906Z,95541.03
2023-01-09T21:47:02.620Z,95552.16
2023-01-09T21:49:31.652Z,95552.72
2023-01-09T21:51:58.290Z,95556.13
2023-01-09T21:54:25.047Z,95557.41
2023-01-09T21:56:52.967Z,95562.91
2023-01-09T21:59:19.803Z,95565.81
2023-01-09T22:01:48.324Z,95576.31
2023-01-09T22:04:16.291Z,95577.69
2023-01-09T22:06:43.726Z,95579.38
2023-01-09T22:09:10.490Z,95580.28
2023-01-09T22:11:40.966Z,95587.88
2023-01-09T22:14:07.818Z,95593.13
2023-01-09T22:16:34.332Z,95590.41
2023-01-09T22:19:00.876Z,95599.38
2023-01-09T22:21:27.852Z,95602.00
2023-01-09T22:23:54.341Z,95612.84
2023-01-09T22:26:21.345Z,95613.59
2023-01-09T22:28:49.138Z,95616.66
2023-01-09T22:31:19.063Z,95617.44
2023-01-09T22:33:52.725Z,95617.53
2023-01-09T22:36:19.586Z,95629.84
2023-01-09T22:38:46.969Z,95628.66
2023-01-09T22:41:13.813Z,95624.97
2023-01-09T22:43:40.444Z,95627.66
2023-01-09T22:46:11.176Z,95637.84
2023-01-09T22:48:39.375Z,95648.72
2023-01-09T22:51:07.322Z,95648.06
2023-01-09T22:53:34.096Z,95646.09
2023-01-09T22:56:04.950Z,95647.72
2023-01-09T22:58:31.923Z,95657.50
2023-01-09T23:00:58.788Z,95654.50
2023-01-09T23:03:26.443Z,95661.69
2023-01-09T23:06:02.954Z,95672.41
2023-01-09T23:08:30.833Z,95669.16
2023-01-09T23:10:59.101Z,95664.06
2023-01-09T23:13:25.542Z,95666.69
2023-01-09T23:15:52.742Z,95667.34
2023-01-09T23:18:20.159Z,95662.47
2023-01-09T23:20:51.336Z,95664.59
2023-01-09T23:23:17.773Z,95662.34
2023-01-09T23:25:52.737Z,95677.25
2023-01-09T23:28:19.461Z,95676.63
2023-01-09T23:30:46.877Z,95674.66
2023-01-09T23:33:13.442Z,95693.97
2023-01-09T23:35:40.019Z,95694.78
2023-01-09T23:38:07.503Z,95694.44
2023-01-09T23:40:36.465Z,95699.50
2023-01-09T23:43:09.687Z,95700.97
2023-01-09T23:45:46.169Z,95704.22
2023-01-09T23:48:15.465Z,95702.78
2023-01-09T23:50:53.249Z,95707.03
2023-01-09T23:53:22.435Z,95709.81
2023-01-09T23:55:50.254Z,95714.25
2023-01-09T23:58:16.664Z,95720.31
